Time;durP1;ratioP1;P1;durP2;ratioP2;P2;SDS_P1;SDS_P2;PMS_P1;PMS_P2;Temp;Humidity;BMP_temperature;BMP_pressure;BME280_temperature;BME280_humidity;BME280_pressure;Samples;Min_cycle;Max_cycle;Signal;HPM_P1;HPM_P2
2023/12/22 00:01:43;;;;;;;10.80;3.40;;;4.80;90.60;;;;;;4954789;28;20513;-54
2023/12/22 00:04:10;;;;;;;9.43;3.63;;;4.80;95.50;;;;;;4955928;29;20947;-54
2023/12/22 00:06:38;;;;;;;17.73;3.87;;;4.90;99.90;;;;;;4956026;29;20447;-55
2023/12/22 00:09:05;;;;;;;15.17;4.07;;;4.70;97.00;;;;;;4947962;29;20462;-55
2023/12/22 00:11:31;;;;;;;16.83;3.17;;;4.80;99.90;;;;;;4955816;28;20509;-55
2023/12/22 00:13:58;;;;;;;12.13;3.37;;;4.70;99.90;;;;;;4945847;28;20478;-55
2023/12/22 00:16:24;;;;;;;11.50;3.50;;;4.70;99.90;;;;;;4954525;29;20451;-55
2023/12/22 00:18:52;;;;;;;13.13;2.87;;;4.60;99.90;;;;;;4955093;29;20486;-55
2023/12/22 00:21:18;;;;;;;10.80;2.97;;;4.70;99.90;;;;;;4955813;29;20478;-60
2023/12/22 00:23:46;;;;;;;9.43;3.30;;;4.60;99.90;;;;;;4955203;29;20443;-61
2023/12/22 00:26:15;;;;;;;12.50;3.10;;;4.70;99.90;;;;;;4955698;29;20446;-60
2023/12/22 00:28:41;;;;;;;12.13;3.50;;;4.70;99.90;;;;;;4949666;29;20447;-61
2023/12/22 00:31:08;;;;;;;9.60;2.97;;;4.70;99.90;;;;;;4947408;29;20485;-61
2023/12/22 00:33:35;;;;;;;15.77;4.00;;;4.70;99.90;;;;;;4955344;29;20446;-60
2023/12/22 00:36:01;;;;;;;7.13;3.07;;;4.80;99.90;;;;;;4955578;29;20501;-59
2023/12/22 00:38:28;;;;;;;14.87;3.70;;;4.80;99.90;;;;;;4952461;28;20482;-61
2023/12/22 00:40:56;;;;;;;16.97;3.40;;;4.80;99.90;;;;;;4953721;28;20467;-61
2023/12/22 00:43:22;;;;;;;7.90;3.33;;;4.80;99.90;;;;;;4946253;29;20517;-62
2023/12/22 00:45:49;;;;;;;23.57;3.53;;;4.80;99.90;;;;;;4954201;29;20450;-60
2023/12/22 00:48:16;;;;;;;16.17;3.73;;;4.80;99.90;;;;;;4947486;29;20463;-60
2023/12/22 00:50:43;;;;;;;12.90;3.40;;;4.70;99.90;;;;;;4955227;28;20476;-61
2023/12/22 00:53:09;;;;;;;15.00;4.17;;;4.70;99.90;;;;;;4954813;29;20510;-60
2023/12/22 00:55:36;;;;;;;27.10;4.80;;;4.80;99.90;;;;;;4952607;28;20538;-54
2023/12/22 00:58:04;;;;;;;19.83;4.83;;;4.90;99.90;;;;;;4953447;29;20509;-53
2023/12/22 01:00:31;;;;;;;17.50;4.23;;;4.90;99.90;;;;;;4954126;29;20498;-54
2023/12/22 01:02:57;;;;;;;17.13;4.80;;;4.80;99.90;;;;;;4955303;29;20447;-57
2023/12/22 01:05:24;;;;;;;12.63;4.17;;;4.80;99.90;;;;;;4948709;28;20462;-56
2023/12/22 01:07:50;;;;;;;16.00;5.13;;;4.80;99.90;;;;;;4953661;29;20459;-56
2023/12/22 01:10:17;;;;;;;14.80;3.97;;;4.90;99.90;;;;;;4954866;29;20521;-56
2023/12/22 01:12:44;;;;;;;16.33;4.20;;;4.90;99.90;;;;;;4951759;28;20941;-56
2023/12/22 01:15:11;;;;;;;14.53;4.23;;;4.80;99.90;;;;;;4948622;29;20684;-57
2023/12/22 01:17:38;;;;;;;14.13;4.00;;;4.80;99.90;;;;;;4954806;29;20454;-60
2023/12/22 01:20:06;;;;;;;10.40;3.50;;;4.80;99.90;;;;;;4954569;29;20541;-61
2023/12/22 01:22:34;;;;;;;19.83;5.00;;;4.80;99.90;;;;;;4949577;29;21010;-61
2023/12/22 01:25:01;;;;;;;15.07;4.60;;;4.80;99.90;;;;;;4954035;28;20932;-60
2023/12/22 01:27:28;;;;;;;12.60;3.60;;;4.90;99.90;;;;;;4951622;28;20454;-61
2023/12/22 01:29:54;;;;;;;14.80;3.13;;;4.80;99.90;;;;;;4953007;28;20526;-60
2023/12/22 01:32:22;;;;;;;19.40;3.90;;;4.70;99.90;;;;;;4947098;29;20521;-61
2023/12/22 01:34:48;;;;;;;11.00;3.50;;;4.60;98.70;;;;;;4953764;29;20451;-61
2023/12/22 01:37:15;;;;;;;11.00;3.60;;;4.60;90.80;;;;;;4954286;29;20933;-60
2023/12/22 01:39:42;;;;;;;12.97;3.53;;;4.50;89.70;;;;;;4954098;29;20857;-61
2023/12/22 01:42:08;;;;;;;12.87;3.33;;;4.50;89.80;;;;;;4954048;29;20878;-61
2023/12/22 01:44:35;;;;;;;14.43;4.90;;;4.50;87.30;;;;;;4948834;28;20759;-61
2023/12/22 01:47:01;;;;;;;12.40;3.30;;;4.50;86.50;;;;;;4943296;28;20489;-61
2023/12/22 01:49:30;;;;;;;12.23;3.50;;;4.50;86.80;;;;;;4951500;29;20439;-55
2023/12/22 01:51:57;;;;;;;12.00;3.10;;;4.50;84.20;;;;;;4953977;29;20480;-55
2023/12/22 01:54:24;;;;;;;13.27;2.90;;;4.40;80.10;;;;;;4954461;29;20505;-55
2023/12/22 01:56:50;;;;;;;13.60;3.53;;;4.40;83.90;;;;;;4953600;28;20897;-54
2023/12/22 01:59:17;;;;;;;17.27;3.80;;;4.40;83.80;;;;;;4954911;29;20486;-55
2023/12/22 02:01:45;;;;;;;15.50;3.93;;;4.40;77.30;;;;;;4945745;28;20493;-55
2023/12/22 02:04:12;;;;;;;14.40;4.43;;;4.30;74.00;;;;;;4953758;29;20470;-54
2023/12/22 02:06:40;;;;;;;12.60;2.97;;;4.20;73.80;;;;;;4954364;29;20442;-55
2023/12/22 02:09:07;;;;;;;9.97;3.40;;;4.20;72.80;;;;;;4953261;29;20469;-55
2023/12/22 02:11:33;;;;;;;11.23;3.60;;;4.10;69.40;;;;;;4953330;29;20466;-55
2023/12/22 02:14:00;;;;;;;22.00;3.67;;;4.00;64.50;;;;;;4947331;29;21133;-55
2023/12/22 02:16:34;;;;;;;13.93;3.30;;;4.00;60.80;;;;;;4948514;29;20455;-55
2023/12/22 02:19:10;;;;;;;11.00;4.17;;;3.90;54.90;;;;;;4949693;28;21089;-55
2023/12/22 02:21:38;;;;;;;8.17;3.17;;;3.90;55.40;;;;;;4953092;29;20470;-62
2023/12/22 02:24:06;;;;;;;12.57;3.80;;;3.90;54.50;;;;;;4948454;28;20961;-61
2023/12/22 02:26:43;;;;;;;10.07;3.00;;;3.90;58.40;;;;;;4952739;29;20478;-60
2023/12/22 02:29:12;;;;;;;8.13;2.77;;;3.90;54.90;;;;;;4953355;29;20944;-61
2023/12/22 02:31:44;;;;;;;17.40;3.90;;;3.90;53.50;;;;;;4944873;29;20565;-60
2023/12/22 02:34:18;;;;;;;14.00;3.03;;;3.90;49.80;;;;;;4952742;29;20447;-60
2023/12/22 02:36:46;;;;;;;13.87;3.80;;;3.80;50.00;;;;;;4952687;28;20434;-60
2023/12/22 02:39:15;;;;;;;8.70;3.50;;;3.90;51.50;;;;;;4949099;28;20518;-60
2023/12/22 02:41:42;;;;;;;18.93;3.20;;;3.90;50.30;;;;;;4951647;28;20467;-60
2023/12/22 02:44:09;;;;;;;11.50;3.67;;;3.90;49.20;;;;;;4951815;29;20447;-59
2023/12/22 02:46:35;;;;;;;13.53;3.60;;;3.90;52.90;;;;;;4953000;29;20442;-61
2023/12/22 02:49:02;;;;;;;10.87;3.70;;;3.90;56.00;;;;;;4947116;29;20529;-60
2023/12/22 02:51:29;;;;;;;10.93;3.60;;;4.00;58.60;;;;;;4953022;28;20514;-60
2023/12/22 02:53:56;;;;;;;14.67;3.90;;;3.80;50.20;;;;;;4952487;29;20506;-60
2023/12/22 02:56:23;;;;;;;16.10;3.30;;;3.80;55.50;;;;;;4944099;28;20541;-61
2023/12/22 02:58:50;;;;;;;13.20;2.97;;;3.90;56.70;;;;;;4952364;28;20566;-60
2023/12/22 03:01:17;;;;;;;14.27;3.03;;;3.80;60.80;;;;;;4952601;28;20474;-61
2023/12/22 03:03:43;;;;;;;8.33;2.70;;;3.90;64.70;;;;;;4946415;28;20471;-62
2023/12/22 03:06:10;;;;;;;10.47;3.10;;;3.80;62.20;;;;;;4952331;29;20462;-60
2023/12/22 03:08:36;;;;;;;16.97;3.07;;;3.80;61.50;;;;;;4953127;29;20450;-61
2023/12/22 03:11:03;;;;;;;13.90;3.33;;;3.70;56.30;;;;;;4949362;28;20931;-61
2023/12/22 03:13:31;;;;;;;13.57;2.50;;;3.70;56.80;;;;;;4952730;29;20478;-60
2023/12/22 03:15:57;;;;;;;15.77;2.57;;;3.70;57.70;;;;;;4943236;28;20521;-61
2023/12/22 03:18:24;;;;;;;8.50;2.57;;;3.70;54.20;;;;;;4951753;29;20446;-62
2023/12/22 03:20:50;;;;;;;13.60;3.10;;;3.60;51.00;;;;;;4952742;29;20489;-62
2023/12/22 03:23:17;;;;;;;6.77;2.20;;;3.60;48.70;;;;;;4952086;29;20719;-61
2023/12/22 03:25:43;;;;;;;11.70;2.53;;;3.60;47.10;;;;;;4952315;29;20509;-61
2023/12/22 03:28:10;;;;;;;9.83;2.87;;;3.70;49.30;;;;;;4952815;29;20446;-61
2023/12/22 03:30:38;;;;;;;8.93;2.37;;;3.60;48.50;;;;;;4945636;28;20558;-61
2023/12/22 03:33:06;;;;;;;8.77;2.70;;;3.60;46.30;;;;;;4948915;28;20462;-61
2023/12/22 03:35:32;;;;;;;10.10;3.20;;;3.60;48.00;;;;;;4951544;29;20541;-61
2023/12/22 03:37:59;;;;;;;8.77;2.97;;;3.60;50.20;;;;;;4941456;29;20978;-61
2023/12/22 03:40:26;;;;;;;14.80;3.40;;;3.60;46.30;;;;;;4952554;29;20962;-61
2023/12/22 03:42:52;;;;;;;15.93;2.87;;;3.60;45.40;;;;;;4952357;29;20474;-62
2023/12/22 03:45:19;;;;;;;12.47;3.50;;;3.60;46.00;;;;;;4952462;29;20497;-61
2023/12/22 03:47:47;;;;;;;8.77;2.90;;;3.60;47.00;;;;;;4952152;28;21011;-60
2023/12/22 03:50:13;;;;;;;15.80;2.50;;;3.60;46.10;;;;;;4952494;28;20504;-60
2023/12/22 03:52:40;;;;;;;14.90;2.73;;;3.60;48.30;;;;;;4947300;28;20490;-60
2023/12/22 03:55:07;;;;;;;10.40;2.77;;;3.70;50.50;;;;;;4954587;29;20489;-60
2023/12/22 03:57:33;;;;;;;6.57;2.43;;;3.80;50.80;;;;;;4956278;29;20509;-62
2023/12/22 04:00:00;;;;;;;7.00;2.23;;;3.80;53.30;;;;;;4956024;28;20517;-62
2023/12/22 04:02:27;;;;;;;8.60;2.83;;;3.80;54.20;;;;;;4950972;29;20446;-57
2023/12/22 04:04:54;;;;;;;10.20;2.57;;;3.80;51.40;;;;;;4952638;28;20494;-56
2023/12/22 04:07:21;;;;;;;4.13;1.67;;;3.80;49.60;;;;;;4955467;29;20450;-55
2023/12/22 04:09:47;;;;;;;6.00;1.97;;;3.80;47.30;;;;;;4947634;28;20513;-54
2023/12/22 04:12:14;;;;;;;2.20;1.13;;;3.70;39.10;;;;;;4954327;29;20672;-54
2023/12/22 04:14:40;;;;;;;2.30;1.50;;;3.70;34.60;;;;;;4949303;28;21062;-54
2023/12/22 04:17:07;;;;;;;1.67;1.30;;;3.70;34.90;;;;;;4958453;28;20469;-55
2023/12/22 04:19:34;;;;;;;2.73;1.07;;;3.60;25.80;;;;;;4953138;29;20514;-55
2023/12/22 04:22:02;;;;;;;1.83;1.20;;;3.60;23.40;;;;;;4955992;28;20521;-54
2023/12/22 04:24:29;;;;;;;5.67;1.70;;;3.60;20.60;;;;;;4955661;29;20450;-55
2023/12/22 04:26:55;;;;;;;1.90;0.93;;;3.50;21.20;;;;;;4952143;28;20589;-53
2023/12/22 04:29:22;;;;;;;3.33;1.13;;;3.50;99.90;;;;;;4953299;29;20439;-56
2023/12/22 04:31:48;;;;;;;5.20;1.60;;;3.50;99.90;;;;;;4948430;28;20482;-55
2023/12/22 04:34:15;;;;;;;2.40;1.30;;;3.40;99.90;;;;;;4958002;28;20525;-54
2023/12/22 04:36:42;;;;;;;1.60;1.10;;;3.30;99.90;;;;;;4959672;28;20470;-54
2023/12/22 04:39:10;;;;;;;3.67;1.30;;;3.30;99.90;;;;;;4959075;28;20535;-59
2023/12/22 04:41:36;;;;;;;3.40;1.07;;;3.30;99.90;;;;;;4952222;28;20560;-60
2023/12/22 04:44:03;;;;;;;4.10;1.67;;;3.30;99.90;;;;;;4954834;28;20470;-59
2023/12/22 04:46:30;;;;;;;2.93;1.30;;;3.30;99.90;;;;;;4954220;28;21141;-60
2023/12/22 04:48:56;;;;;;;2.70;1.30;;;3.40;99.90;;;;;;4953230;28;20526;-55
2023/12/22 04:51:23;;;;;;;2.73;1.30;;;3.40;99.90;;;;;;4952528;28;20517;-56
2023/12/22 04:53:49;;;;;;;4.30;1.40;;;3.40;99.90;;;;;;4959983;28;20465;-55
2023/12/22 04:56:17;;;;;;;1.57;1.20;;;3.40;99.90;;;;;;4952451;28;20525;-56
2023/12/22 04:58:44;;;;;;;2.23;1.23;;;3.40;26.50;;;;;;4960729;28;20461;-57
2023/12/22 05:01:10;;;;;;;1.70;0.90;;;3.40;28.10;;;;;;4957672;28;21099;-54
2023/12/22 05:03:37;;;;;;;2.27;1.07;;;3.50;37.70;;;;;;4945913;28;20943;-56
2023/12/22 05:06:04;;;;;;;1.33;1.17;;;3.40;36.30;;;;;;4952580;28;20458;-55
2023/12/22 05:08:31;;;;;;;3.43;1.40;;;3.30;27.50;;;;;;4958042;28;20557;-56
2023/12/22 05:10:57;;;;;;;2.00;0.80;;;3.30;96.50;;;;;;4956741;28;20489;-56
2023/12/22 05:13:25;;;;;;;4.10;1.33;;;3.30;99.90;;;;;;4951528;28;20462;-56
2023/12/22 05:15:52;;;;;;;2.30;1.00;;;3.30;99.90;;;;;;4952698;28;20466;-56
2023/12/22 05:18:18;;;;;;;10.33;1.57;;;3.20;99.90;;;;;;4951054;28;20462;-56
2023/12/22 05:20:45;;;;;;;3.53;1.20;;;3.20;99.90;;;;;;4963028;28;20521;-55
2023/12/22 05:23:12;;;;;;;1.27;0.93;;;3.20;99.90;;;;;;4955892;28;20514;-56
2023/12/22 05:25:38;;;;;;;2.23;0.80;;;3.20;99.90;;;;;;4954048;29;20961;-57
2023/12/22 05:28:05;;;;;;;1.67;1.07;;;3.20;99.90;;;;;;4953541;29;21027;-55
2023/12/22 05:30:33;;;;;;;5.40;1.87;;;3.20;99.90;;;;;;4954197;29;20459;-56
2023/12/22 05:32:59;;;;;;;0.87;0.73;;;3.30;99.90;;;;;;4946373;28;20606;-55
2023/12/22 05:35:26;;;;;;;3.60;1.23;;;3.30;99.90;;;;;;4953053;29;20510;-56
2023/12/22 05:37:52;;;;;;;2.73;1.90;;;3.20;99.90;;;;;;4954308;29;20478;-56
2023/12/22 05:40:19;;;;;;;1.43;0.97;;;3.30;92.30;;;;;;4954185;28;20525;-55
2023/12/22 05:42:45;;;;;;;5.60;1.37;;;3.20;99.90;;;;;;4953267;29;20799;-56
2023/12/22 05:45:13;;;;;;;6.00;1.57;;;3.20;99.90;;;;;;4954220;29;20670;-56
2023/12/22 05:47:41;;;;;;;2.37;1.13;;;3.10;99.90;;;;;;4950213;29;20467;-55
2023/12/22 05:50:10;;;;;;;3.60;1.27;;;3.20;94.00;;;;;;4951194;28;20563;-55
2023/12/22 05:52:37;;;;;;;1.60;1.03;;;3.20;26.50;;;;;;4952615;29;20521;-56
2023/12/22 05:55:04;;;;;;;2.07;1.03;;;3.20;25.00;;;;;;4953618;29;20450;-55
2023/12/22 05:57:30;;;;;;;2.10;1.00;;;3.20;31.70;;;;;;4952850;29;20447;-57
2023/12/22 05:59:57;;;;;;;2.50;1.10;;;3.10;30.40;;;;;;4953868;29;20486;-56
2023/12/22 06:02:23;;;;;;;4.50;1.20;;;3.10;34.70;;;;;;4954092;29;20548;-57
2023/12/22 06:04:51;;;;;;;5.10;1.37;;;3.20;42.00;;;;;;4948792;29;20886;-54
2023/12/22 06:07:19;;;;;;;8.10;1.43;;;3.30;43.50;;;;;;4948430;28;20463;-55
2023/12/22 06:09:46;;;;;;;5.10;1.90;;;3.40;62.80;;;;;;4950403;29;20446;-55
2023/12/22 06:12:12;;;;;;;3.60;1.60;;;3.40;55.30;;;;;;4947036;28;20602;-54
2023/12/22 06:14:39;;;;;;;2.40;1.30;;;3.40;60.60;;;;;;4952505;29;20505;-53
2023/12/22 06:17:05;;;;;;;4.77;1.40;;;3.40;59.10;;;;;;4949559;29;20470;-56
2023/12/22 06:19:32;;;;;;;2.23;1.50;;;3.30;66.60;;;;;;4953604;29;20493;-56
2023/12/22 06:22:00;;;;;;;5.03;1.47;;;3.30;71.50;;;;;;4951696;29;20991;-57
2023/12/22 06:24:27;;;;;;;1.60;1.30;;;3.30;72.40;;;;;;4953768;29;20442;-56
2023/12/22 06:26:53;;;;;;;6.40;1.70;;;3.30;68.00;;;;;;4952457;29;20461;-56
2023/12/22 06:29:20;;;;;;;3.33;1.30;;;3.30;72.40;;;;;;4950758;28;20525;-57
2023/12/22 06:31:50;;;;;;;2.20;1.33;;;3.30;72.00;;;;;;4952802;28;20494;-56
2023/12/22 06:34:16;;;;;;;7.33;1.73;;;3.30;77.20;;;;;;4948400;29;20863;-56
2023/12/22 06:36:43;;;;;;;3.13;1.37;;;3.30;82.00;;;;;;4952501;29;20529;-56
2023/12/22 06:39:11;;;;;;;2.63;1.53;;;3.40;80.90;;;;;;4951278;29;20452;-56
2023/12/22 06:41:38;;;;;;;4.60;1.10;;;3.40;80.60;;;;;;4952827;28;20518;-57
2023/12/22 06:44:04;;;;;;;2.97;1.33;;;3.40;79.40;;;;;;4950691;28;20477;-56
2023/12/22 06:46:31;;;;;;;2.70;1.40;;;3.40;74.30;;;;;;4945724;29;20446;-56
2023/12/22 06:48:58;;;;;;;3.33;1.53;;;3.30;62.40;;;;;;4953078;29;20459;-57
2023/12/22 06:51:26;;;;;;;2.43;1.37;;;3.30;60.50;;;;;;4946238;28;20478;-56
2023/12/22 06:53:54;;;;;;;2.07;1.47;;;3.30;55.30;;;;;;4943692;29;20692;-56
2023/12/22 06:56:24;;;;;;;3.53;1.47;;;3.20;47.30;;;;;;4952853;29;20537;-56
2023/12/22 06:58:51;;;;;;;2.10;1.00;;;3.20;41.10;;;;;;4942363;29;20462;-57
2023/12/22 07:01:21;;;;;;;6.77;1.50;;;3.10;27.60;;;;;;4949842;28;20490;-56
2023/12/22 07:03:48;;;;;;;4.40;1.27;;;3.10;91.20;;;;;;4951727;29;20451;-56
2023/12/22 07:06:15;;;;;;;4.03;1.20;;;3.00;99.90;;;;;;4952611;29;20453;-56
2023/12/22 07:08:42;;;;;;;3.10;1.40;;;2.80;99.90;;;;;;4953027;29;20438;-56
2023/12/22 07:11:09;;;;;;;4.97;1.50;;;2.80;99.90;;;;;;4953176;28;20481;-56
2023/12/22 07:13:37;;;;;;;4.40;1.13;;;2.70;99.90;;;;;;4941482;28;20513;-57
2023/12/22 07:16:04;;;;;;;1.73;0.93;;;2.50;99.90;;;;;;4939232;29;20485;-56
2023/12/22 07:18:31;;;;;;;3.20;1.17;;;2.40;99.90;;;;;;4952366;29;20479;-56
2023/12/22 07:20:58;;;;;;;2.50;1.40;;;2.40;99.90;;;;;;4952768;28;20494;-57
2023/12/22 07:23:24;;;;;;;4.03;2.10;;;2.30;99.90;;;;;;4946970;28;20438;-56
2023/12/22 07:25:51;;;;;;;5.33;1.67;;;2.40;99.90;;;;;;4952131;28;20466;-56
2023/12/22 07:28:17;;;;;;;4.13;1.50;;;2.40;99.90;;;;;;4956372;29;20855;-57
2023/12/22 07:30:45;;;;;;;11.03;2.70;;;2.50;99.90;;;;;;4953621;28;20482;-55
2023/12/22 07:33:12;;;;;;;7.17;2.20;;;2.60;99.90;;;;;;4951910;29;20462;-55
2023/12/22 07:35:39;;;;;;;11.20;2.13;;;2.70;99.90;;;;;;4956383;29;20447;-54
2023/12/22 07:38:05;;;;;;;3.80;1.20;;;2.80;99.90;;;;;;4960952;29;20474;-54
2023/12/22 07:40:32;;;;;;;8.83;3.33;;;2.80;99.90;;;;;;4960750;28;20522;-56
2023/12/22 07:42:59;;;;;;;4.37;2.03;;;2.90;99.90;;;;;;4946957;29;20541;-55
2023/12/22 07:45:25;;;;;;;4.07;1.70;;;3.00;99.90;;;;;;4953252;28;20944;-55
2023/12/22 07:47:53;;;;;;;4.60;1.70;;;2.90;99.90;;;;;;4954908;29;20442;-56
2023/12/22 07:50:21;;;;;;;4.33;1.80;;;3.00;99.90;;;;;;4955467;28;20517;-55
2023/12/22 07:52:47;;;;;;;6.17;2.20;;;3.10;99.90;;;;;;4956413;29;20447;-55
2023/12/22 07:55:14;;;;;;;5.77;2.07;;;3.20;27.70;;;;;;4951743;29;20518;-55
2023/12/22 07:57:42;;;;;;;8.60;1.97;;;3.20;34.50;;;;;;4956072;29;20472;-55
2023/12/22 08:00:12;;;;;;;2.53;1.50;;;3.20;39.70;;;;;;4948642;29;20478;-56
2023/12/22 08:02:38;;;;;;;5.07;1.33;;;3.20;35.10;;;;;;4951719;28;20473;-56
2023/12/22 08:05:06;;;;;;;6.23;1.97;;;3.20;44.10;;;;;;4955035;29;20533;-55
2023/12/22 08:07:33;;;;;;;8.40;2.13;;;3.20;44.70;;;;;;4956111;29;20505;-55
2023/12/22 08:10:00;;;;;;;7.47;2.10;;;3.20;42.30;;;;;;4955066;28;20735;-55
2023/12/22 08:12:28;;;;;;;4.40;1.90;;;3.20;39.60;;;;;;4952710;28;20494;-55
2023/12/22 08:14:54;;;;;;;8.07;2.10;;;3.20;48.00;;;;;;4954931;28;20870;-55
2023/12/22 08:17:21;;;;;;;9.03;2.27;;;3.20;48.00;;;;;;4944205;28;20960;-55
2023/12/22 08:19:47;;;;;;;7.97;1.80;;;3.10;41.80;;;;;;4948951;28;20494;-54
2023/12/22 08:22:15;;;;;;;4.07;1.83;;;3.20;57.40;;;;;;4949407;29;20973;-54
2023/12/22 08:24:42;;;;;;;6.00;2.10;;;3.30;72.30;;;;;;4948028;29;20462;-55
2023/12/22 08:27:09;;;;;;;6.63;1.90;;;3.30;70.30;;;;;;4952974;29;20458;-54
2023/12/22 08:29:36;;;;;;;5.03;2.70;;;3.30;76.50;;;;;;4948120;28;20561;-56
2023/12/22 08:32:03;;;;;;;12.50;2.37;;;3.30;75.60;;;;;;4950533;28;21060;-56
2023/12/22 08:34:29;;;;;;;4.83;1.97;;;3.30;74.30;;;;;;4949775;28;20526;-54
2023/12/22 08:36:56;;;;;;;6.30;2.00;;;3.30;73.80;;;;;;4951774;29;20502;-55
2023/12/22 08:39:25;;;;;;;2.00;1.23;;;3.30;80.50;;;;;;4954448;28;20473;-55
2023/12/22 08:41:51;;;;;;;5.03;2.27;;;3.40;73.80;;;;;;4946936;29;20498;-54
2023/12/22 08:44:18;;;;;;;3.90;1.47;;;3.30;75.60;;;;;;4946351;29;20937;-56
2023/12/22 08:46:44;;;;;;;6.13;1.90;;;3.30;81.20;;;;;;4948468;28;20478;-54
2023/12/22 08:49:11;;;;;;;9.37;2.17;;;3.40;76.10;;;;;;4934467;28;20568;-56
2023/12/22 08:51:38;;;;;;;3.70;1.63;;;3.30;76.00;;;;;;4951904;28;20482;-54
2023/12/22 08:54:05;;;;;;;5.20;1.63;;;3.30;80.40;;;;;;4952906;28;20644;-55
2023/12/22 08:56:35;;;;;;;10.13;2.10;;;3.30;81.10;;;;;;4954347;28;20463;-55
2023/12/22 08:59:01;;;;;;;10.97;2.07;;;3.30;76.80;;;;;;4954519;28;20467;-55
2023/12/22 09:01:28;;;;;;;6.07;2.20;;;3.30;78.60;;;;;;4945365;28;20491;-55
2023/12/22 09:03:54;;;;;;;8.13;2.43;;;3.40;84.50;;;;;;4948047;28;20553;-56
2023/12/22 09:06:22;;;;;;;8.07;2.27;;;3.50;87.90;;;;;;4949534;28;20470;-56
2023/12/22 09:08:49;;;;;;;3.27;1.60;;;3.70;95.80;;;;;;4953889;28;20975;-57
2023/12/22 09:11:18;;;;;;;12.40;2.80;;;3.70;94.60;;;;;;4947864;28;20541;-56
2023/12/22 09:13:46;;;;;;;8.13;2.10;;;3.70;91.60;;;;;;4949420;28;20558;-55
2023/12/22 09:16:14;;;;;;;6.07;2.37;;;3.70;98.10;;;;;;4947817;28;21661;-55
2023/12/22 09:18:42;;;;;;;7.80;2.03;;;3.80;99.90;;;;;;4945558;28;21036;-56
2023/12/22 09:21:08;;;;;;;8.60;2.40;;;3.70;94.70;;;;;;4945550;28;20494;-57
2023/12/22 09:23:35;;;;;;;10.03;2.90;;;3.80;99.90;;;;;;4949515;28;20925;-55
2023/12/22 09:26:01;;;;;;;8.63;2.07;;;3.90;99.90;;;;;;4953482;29;20529;-55
2023/12/22 09:28:28;;;;;;;7.00;1.90;;;3.90;99.90;;;;;;4943486;29;20519;-56
2023/12/22 09:30:56;;;;;;;8.20;2.63;;;3.90;99.90;;;;;;4954518;28;20838;-56
2023/12/22 09:33:23;;;;;;;8.53;2.70;;;3.90;99.90;;;;;;4949024;28;20471;-56
2023/12/22 09:35:50;;;;;;;11.63;2.37;;;4.00;99.90;;;;;;4944925;28;20462;-56
2023/12/22 09:38:17;;;;;;;5.77;2.13;;;3.90;99.90;;;;;;4947650;28;20473;-55
2023/12/22 09:40:44;;;;;;;9.37;2.60;;;4.00;99.90;;;;;;4954526;28;20481;-55
2023/12/22 09:43:12;;;;;;;10.50;2.83;;;4.10;99.90;;;;;;4946055;28;20965;-56
2023/12/22 09:45:40;;;;;;;16.83;3.33;;;4.10;99.90;;;;;;4954309;28;20463;-56
2023/12/22 09:48:10;;;;;;;16.53;3.57;;;4.20;99.90;;;;;;4954749;28;20537;-55
2023/12/22 09:50:39;;;;;;;14.60;3.90;;;4.30;99.90;;;;;;4960741;28;20478;-56
2023/12/22 09:53:06;;;;;;;9.70;2.50;;;4.60;99.90;;;;;;4952992;28;20988;-55
2023/12/22 09:55:35;;;;;;;11.90;3.20;;;5.10;99.90;;;;;;4949517;28;20462;-54
2023/12/22 09:58:03;;;;;;;13.43;3.20;;;6.20;99.90;;;;;;4951236;28;20463;-55
2023/12/22 10:00:32;;;;;;;6.43;2.77;;;6.20;99.90;;;;;;4957145;28;20925;-55
2023/12/22 10:02:59;;;;;;;11.63;2.47;;;5.50;99.90;;;;;;4950661;28;20985;-55
2023/12/22 10:05:27;;;;;;;8.23;2.13;;;5.10;99.90;;;;;;4948599;28;20498;-55
2023/12/22 10:07:53;;;;;;;10.87;2.80;;;4.70;99.90;;;;;;4952567;28;20952;-54
2023/12/22 10:10:21;;;;;;;10.20;2.50;;;5.30;99.90;;;;;;4953434;28;20585;-55
2023/12/22 10:12:49;;;;;;;15.60;3.07;;;4.90;99.90;;;;;;4946809;28;20877;-56
2023/12/22 10:15:18;;;;;;;10.97;3.40;;;4.40;99.90;;;;;;4951921;28;20498;-56
2023/12/22 10:17:45;;;;;;;15.60;2.27;;;4.60;99.90;;;;;;4950895;28;20497;-55
2023/12/22 10:20:12;;;;;;;12.63;4.37;;;4.60;99.90;;;;;;4948877;28;20498;-55
2023/12/22 10:22:39;;;;;;;14.87;3.53;;;4.80;99.90;;;;;;4957831;28;20541;-55
2023/12/22 10:25:08;;;;;;;14.80;3.67;;;4.90;99.90;;;;;;4948326;28;20804;-55
2023/12/22 10:27:36;;;;;;;9.70;3.23;;;5.00;99.90;;;;;;4949770;28;20882;-55
2023/12/22 10:30:04;;;;;;;9.03;3.57;;;4.80;99.90;;;;;;4956999;28;20927;-55
2023/12/22 10:32:31;;;;;;;9.47;2.73;;;4.80;99.90;;;;;;4952141;28;20463;-55
2023/12/22 10:34:57;;;;;;;12.90;3.00;;;4.60;99.90;;;;;;4939907;28;20988;-55
2023/12/22 10:37:24;;;;;;;16.10;4.50;;;4.80;99.90;;;;;;4961351;23;20459;-54
2023/12/22 10:39:55;;;;;;;15.00;3.07;;;5.10;99.90;;;;;;4966692;28;20524;-54
2023/12/22 10:42:22;;;;;;;11.03;3.13;;;5.30;99.90;;;;;;4961750;28;20489;-54
2023/12/22 10:44:49;;;;;;;14.63;3.30;;;5.30;99.90;;;;;;4960092;28;20466;-53
2023/12/22 10:47:16;;;;;;;14.40;3.50;;;5.30;99.90;;;;;;4965195;28;20873;-54
2023/12/22 10:49:42;;;;;;;11.20;3.43;;;5.30;99.90;;;;;;4959219;28;20462;-53
2023/12/22 10:52:15;;;;;;;11.20;3.00;;;5.30;99.90;;;;;;4964492;28;20485;-55
2023/12/22 10:54:42;;;;;;;13.37;4.10;;;5.50;99.90;;;;;;4962415;28;20492;-53
2023/12/22 10:57:11;;;;;;;13.63;3.20;;;6.00;99.90;;;;;;4964602;28;20496;-53
2023/12/22 10:59:45;;;;;;;16.00;3.67;;;5.60;99.90;;;;;;4971216;28;20467;-53
2023/12/22 11:02:16;;;;;;;10.97;2.80;;;5.20;99.90;;;;;;4960247;28;20485;-54
2023/12/22 11:04:48;;;;;;;13.10;2.80;;;5.10;99.90;;;;;;4961617;28;21009;-52
2023/12/22 11:07:16;;;;;;;19.07;4.53;;;5.20;99.90;;;;;;4967005;28;20447;-54
2023/12/22 11:09:46;;;;;;;15.03;3.77;;;5.20;99.90;;;;;;4975862;28;20441;-54
2023/12/22 11:12:15;;;;;;;8.97;3.30;;;5.50;99.90;;;;;;4955888;28;20513;-53
2023/12/22 11:14:41;;;;;;;10.97;3.47;;;5.50;99.90;;;;;;4961203;28;20514;-55
2023/12/22 11:17:09;;;;;;;14.73;4.03;;;5.30;99.90;;;;;;4973695;28;20453;-53
2023/12/22 11:19:39;;;;;;;12.60;3.27;;;5.40;99.90;;;;;;4964538;28;20873;-54
2023/12/22 11:22:08;;;;;;;21.47;4.43;;;5.00;99.90;;;;;;4969840;28;20508;-52
2023/12/22 11:24:37;;;;;;;11.80;3.87;;;5.10;99.90;;;;;;4973357;28;20445;-54
2023/12/22 11:27:05;;;;;;;9.03;3.00;;;4.90;99.90;;;;;;4969013;28;20445;-57
2023/12/22 11:29:34;;;;;;;14.40;3.30;;;5.00;99.90;;;;;;4960273;28;20453;-53
2023/12/22 11:32:05;;;;;;;12.30;3.13;;;4.90;99.90;;;;;;4972945;28;20714;-52
2023/12/22 11:34:33;;;;;;;14.03;3.63;;;4.90;99.90;;;;;;4948647;28;20446;-52
2023/12/22 11:37:01;;;;;;;15.00;3.87;;;5.30;99.90;;;;;;4960637;28;20457;-55
2023/12/22 11:39:27;;;;;;;8.70;3.33;;;5.30;99.90;;;;;;4948839;28;20474;-52
2023/12/22 11:41:55;;;;;;;7.47;2.80;;;5.10;99.90;;;;;;4961221;28;20485;-53
2023/12/22 11:44:23;;;;;;;17.50;4.00;;;5.10;99.90;;;;;;4960779;28;20461;-52
2023/12/22 11:47:03;;;;;;;11.10;3.60;;;5.10;99.90;;;;;;4969374;28;20573;-52
2023/12/22 11:49:33;;;;;;;7.77;2.70;;;5.10;99.90;;;;;;4951128;28;20437;-52
2023/12/22 11:52:00;;;;;;;8.93;2.50;;;5.10;99.90;;;;;;4949971;28;20435;-54
2023/12/22 11:54:49;;;;;;;11.00;2.70;;;5.20;99.90;;;;;;4948186;28;20474;-54
2023/12/22 11:57:37;;;;;;;10.20;3.07;;;5.20;99.90;;;;;;4953304;28;20967;-56
2023/12/22 12:00:07;;;;;;;9.60;2.50;;;5.10;99.90;;;;;;4956022;28;20465;-52
2023/12/22 12:02:37;;;;;;;4.70;2.20;;;5.30;99.90;;;;;;4952635;28;20999;-52
2023/12/22 12:05:05;;;;;;;9.87;2.33;;;5.40;99.90;;;;;;4957110;28;20544;-52
2023/12/22 12:07:40;;;;;;;6.10;2.47;;;5.40;99.90;;;;;;4951220;28;20493;-53
2023/12/22 12:10:07;;;;;;;15.73;2.90;;;5.40;99.90;;;;;;4952397;28;20459;-52
2023/12/22 12:12:34;;;;;;;9.13;2.23;;;5.50;99.90;;;;;;4948364;28;20466;-52
2023/12/22 12:15:08;;;;;;;6.40;2.67;;;5.00;99.90;;;;;;4952416;28;20470;-52
2023/12/22 12:17:39;;;;;;;6.47;2.70;;;5.20;1.40;;;;;;4945129;28;21072;-54
2023/12/22 12:20:07;;;;;;;9.97;2.43;;;5.40;1.40;;;;;;4936846;28;20489;-52
2023/12/22 12:22:34;;;;;;;12.03;2.43;;;6.10;99.90;;;;;;4948919;28;20489;-53
2023/12/22 12:25:01;;;;;;;9.87;2.70;;;5.60;99.90;;;;;;4948406;28;20498;-54
2023/12/22 12:27:28;;;;;;;6.37;2.10;;;5.20;99.90;;;;;;4949904;28;20585;-52
2023/12/22 12:29:55;;;;;;;12.60;2.93;;;5.00;99.90;;;;;;4945331;28;20538;-54
2023/12/22 12:32:24;;;;;;;11.53;3.13;;;4.90;99.90;;;;;;4945603;28;20486;-54
2023/12/22 12:34:55;;;;;;;12.97;3.13;;;4.80;99.90;;;;;;4939174;28;20462;-54
2023/12/22 12:37:22;;;;;;;12.73;3.17;;;4.80;99.90;;;;;;4948822;28;20485;-53
2023/12/22 12:39:53;;;;;;;9.33;2.93;;;4.80;99.90;;;;;;4947445;28;20466;-52
2023/12/22 12:42:23;;;;;;;13.70;3.23;;;4.80;99.90;;;;;;4953636;28;20491;-53
2023/12/22 12:44:53;;;;;;;19.57;4.10;;;4.90;99.90;;;;;;4947572;28;20466;-52
2023/12/22 12:47:19;;;;;;;12.80;3.10;;;4.70;99.90;;;;;;4945556;28;20459;-54
2023/12/22 12:49:46;;;;;;;7.70;2.03;;;4.70;99.90;;;;;;4947742;28;20462;-53
2023/12/22 12:52:14;;;;;;;8.30;2.30;;;4.70;99.90;;;;;;4947507;28;20875;-54
2023/12/22 12:54:42;;;;;;;8.90;2.67;;;4.50;99.90;;;;;;4953022;28;20467;-54